x

La Perouse Bank (46206) Wave Buoy

4:00 - Fri 9th Dec 2016 All times are PST. -8 hours from GMT.

  • Sig Wave height 10.8ft
  • Peak Period 8s
  • Wind
    34mph, 40mph gusts
  • Sea Temp 56°f
  • Air Temp 41°f
  • Sea Pressure 1008.5mb
  • La Perouse Bank
  • La Perouse Bank

More Historic Weather Station data

Upgrade to MSW Pro to gain access to the past 30 days of data for over 8000 Wavebouys and Weather Stations around the globe.

Join Pro

Comparision Forecast

View Surf forecast
   
ven. 12/09 4:00 11ft 8s 34 40 mph 1008.5mb 56f 41f
3:00 10ft 7s 34 43 mph 1009mb 56f 40f
2:00 10.5ft 8s 36 47 mph 1008.9mb 56f 39f
1:00  -   -  36
mph
- - -
12:00 12ft 8s 36 45 mph 1009.3mb 56f 38f
jeu. 12/08 11:00 11ft 7s 36 45 mph 1009.2mb 56f 39f
10:00 11ft 7s 36 43 mph 1009.1mb 56f 38f
9:00 10.5ft 8s 36 47 mph 1008.7mb 56f 40f
8:00 10ft 7s 36 43 mph 1008mb 56f 43f
7:00 9ft 7s 36 45 mph 1008.2mb 55f 42f
6:00 9ft 6s 36 43 mph 1008.5mb 56f 42f
5:00 10ft 6s 34 45 mph 1009mb 56f 42f
4:00 9ft 7s 34 40 mph 1009.6mb 56f 42f
3:00 9ft 7s 36 47 mph 1009.6mb 56f 42f
2:00 9.5ft 6s 36 45 mph 1010.3mb 56f 42f
1:00 9ft 7s 34 45 mph 1011.2mb 56f 42f
12:00 9ft 7s 36 43 mph 1012.6mb 56f 42f
11:00 9ft 7s 36 45 mph 1013.4mb 56f 41f
10:00 8.5ft 6s 36 45 mph 1014mb 56f 40f
9:00 8ft 6s 34 40 mph 1015mb 56f 40f
8:00 8ft 7s 31 36 mph 1015.4mb 56f 41f
7:00 7ft 6s 31 36 mph 1016.1mb 56f 41f
6:00 7.5ft 7s 29 36 mph 1017.1mb 56f 41f
5:00 8ft 6s 29 36 mph 1017.8mb 55f 41f
4:00 8ft 6s 29 36 mph 1018.4mb 56f 41f
3:00 7ft 6s 29 36 mph 1019.5mb 55f 41f
2:00 6.5ft 6s 29 34 mph 1020.5mb 55f 41f
1:00 6.5ft 13s 27 31 mph 1021.2mb 55f 41f
12:00 6ft 6s 27 31 mph 1022mb 55f 40f
mer. 12/07 11:00 6ft 14s 27 31 mph 1022.9mb 55f 40f
10:00 6ft 5s 22 29 mph 1023.9mb 55f 40f
9:00 6ft 5s 27 31 mph 1024.1mb 55f 40f
8:00 6ft 14s 27 36 mph 1024.7mb 55f 39f
7:00 6ft 5s 25 31 mph 1025.5mb 55f 39f
6:00 5ft 5s 25 31 mph 1025.9mb 55f 39f
5:00 5ft 5s 22 29 mph 1026.7mb 56f 40f
4:00 5ft 6s 22 27 mph 1027.4mb 56f 40f
3:00 5.5ft 14s 22 27 mph 1027.6mb 56f 40f
2:00 5ft 14s 22 27 mph 1027.9mb 56f 40f
1:00 5.5ft 6s 25 29 mph 1028.5mb 56f 40f
12:00 6ft 6s 25 29 mph 1029.3mb 56f 40f
11:00 6ft 6s 25 31 mph 1029.6mb 55f 39f
10:00 6ft 6s 22 29 mph 1029.8mb 56f 39f
9:00 6ft 10s 27 31 mph 1029.2mb 55f 39f
8:00 6ft 6s 25 31 mph 1029.1mb 55f 39f
7:00 6ft 5s 25 31 mph 1028.8mb 55f 40f
6:00 6ft 10s 25 31 mph 1028.8mb 55f 40f
5:00 6ft 6s 25 29 mph 1028.7mb 55f 40f
4:00 6ft 5s 22 29 mph 1028.7mb 55f 40f
3:00 6ft 9s 22 27 mph 1028.7mb 55f 41f
2:00  -   -  22
mph
1028.5mb - 41f
1:00 6ft 10s 20 27 mph 1028.1mb 55f 42f
12:00 6.5ft 11s 22 27 mph 1027.6mb 55f 42f
mar. 12/06 11:00 6.5ft 10s 22 27 mph 1027mb 55f 42f
10:00 6.5ft 12s 22 29 mph 1026.2mb 55f 42f
9:00 6.5ft 11s 18 25 mph 1025.8mb 55f 43f
7:00 7ft 10s 18 20 mph 1024.7mb 55f 43f
6:00 7ft 10s 11 18 mph 1024.6mb 54f 43f
4:00 7.5ft 11s 7 13 mph 1024.1mb 54f 41f
3:00 7ft 12s 11 13 mph 1023.8mb 55f 40f
2:00 7ft 12s 11 16 mph 1023.5mb 55f 41f
1:00 7ft 12s 2 9 mph 1023.2mb 55f 42f
12:00 7.5ft 12s 2 4 mph 1023.1mb 54f 44f
9:00 8ft 12s 2 4 mph 1022.3mb 54f 44f
8:00 8.5ft 12s 4 7 mph 1021.9mb 54f 43f
7:00 8ft 13s 4 9 mph 1021.2mb 55f 42f
6:00 9ft 14s 9 13 mph 1020.6mb 55f 42f
5:00 9ft 13s 11 13 mph 1020.1mb 54f 42f
3:00 9.5ft 13s 11 16 mph 1019.3mb 55f 42f
2:00 11ft 13s 16 20 mph 1018.7mb 55f 42f
1:00 10ft 14s 9 13 mph 1018.3mb 55f 42f
12:00 9.5ft 14s 11 16 mph 1018mb 55f 42f
lun. 12/05 11:00 10ft 13s 9 13 mph 1017.5mb 54f 42f
10:00 9.5ft 14s 9 13 mph 1017.1mb 55f 42f
9:00 9.5ft 14s 11 16 mph 1016.8mb 55f 42f
8:00 10ft 11s 11 16 mph 1016.4mb 54f 43f
7:00 10ft 14s 2 4 mph 1016.2mb 54f 42f
6:00 10.5ft 12s  -  4 mph 1016.1mb 54f 41f
5:00 10ft 13s 4 9 mph 1015.8mb 54f 41f
4:00 10ft 12s 13 20 mph 1015.8mb 55f 41f
3:00 10.5ft 13s 4 9 mph 1015.7mb 55f 42f
2:00 11ft 14s 7 13 mph 1015.7mb 54f 42f